createdAt,value
2022-10-05T00:01:33.806Z,5.36
2022-10-05T00:04:19.707Z,5.35
2022-10-05T00:07:09.844Z,5.35
2022-10-05T00:09:37.650Z,5.36
2022-10-05T00:12:18.856Z,5.36
2022-10-05T00:14:48.927Z,5.34
2022-10-05T00:17:21.229Z,5.31
2022-10-05T00:19:53.989Z,5.28
2022-10-05T00:22:28.852Z,5.24
2022-10-05T00:24:59.343Z,5.20
2022-10-05T00:27:38.172Z,5.16
2022-10-05T00:30:18.849Z,5.12
2022-10-05T00:32:47.755Z,5.09
2022-10-05T00:35:17.148Z,5.08
2022-10-05T00:37:47.322Z,5.08
2022-10-05T00:40:46.619Z,5.09
2022-10-05T00:43:49.930Z,5.09
2022-10-05T00:46:31.238Z,5.11
2022-10-05T00:49:14.062Z,5.12
2022-10-05T00:51:52.085Z,5.14
2022-10-05T00:54:52.374Z,5.15
2022-10-05T00:57:34.312Z,5.13
2022-10-05T01:00:19.232Z,5.11
2022-10-05T01:02:47.864Z,5.08
2022-10-05T01:05:34.208Z,5.03
2022-10-05T01:08:08.266Z,4.98
2022-10-05T01:10:45.759Z,4.93
2022-10-05T01:14:01.045Z,4.88
2022-10-05T01:17:00.180Z,4.86
2022-10-05T01:20:05.893Z,4.84
2022-10-05T01:22:52.581Z,4.82
2022-10-05T01:25:36.944Z,4.81
2022-10-05T01:28:57.257Z,4.80
2022-10-05T01:31:42.210Z,4.80
2022-10-05T01:34:31.103Z,4.81
2022-10-05T01:37:12.618Z,4.81
2022-10-05T01:39:49.506Z,4.80
2022-10-05T01:42:33.070Z,4.80
2022-10-05T01:45:09.413Z,4.78
2022-10-05T01:47:44.894Z,4.75
2022-10-05T01:50:32.894Z,4.73
2022-10-05T01:53:12.979Z,4.68
2022-10-05T01:55:49.787Z,4.63
2022-10-05T01:58:37.804Z,4.59
2022-10-05T02:01:44.200Z,4.57
2022-10-05T02:04:56.472Z,4.56
2022-10-05T02:07:21.084Z,4.57
2022-10-05T02:09:55.445Z,4.58
2022-10-05T02:12:29.425Z,4.59
2022-10-05T02:15:08.245Z,4.60
2022-10-05T02:17:43.262Z,4.61
2022-10-05T02:20:15.234Z,4.63
2022-10-05T02:22:49.443Z,4.64
2022-10-05T02:25:22.110Z,4.66
2022-10-05T02:27:58.280Z,4.66
2022-10-05T02:30:29.504Z,4.65
2022-10-05T02:33:06.881Z,4.63
2022-10-05T02:35:35.061Z,4.59
2022-10-05T02:38:19.446Z,4.57
2022-10-05T02:41:10.074Z,4.52
2022-10-05T02:44:04.784Z,4.47
2022-10-05T02:46:45.226Z,4.42
2022-10-05T02:49:39.440Z,4.39
2022-10-05T02:52:16.467Z,4.36
2022-10-05T02:55:16.007Z,4.34
2022-10-05T02:58:16.800Z,4.34
2022-10-05T03:01:03.395Z,4.33
2022-10-05T03:03:43.864Z,4.33
2022-10-05T03:06:25.803Z,4.33
2022-10-05T03:09:06.960Z,4.34
2022-10-05T03:12:00.855Z,4.35
2022-10-05T03:14:51.340Z,4.36
2022-10-05T03:17:25.504Z,4.37
2022-10-05T03:20:35.634Z,4.36
2022-10-05T03:23:09.885Z,4.33
2022-10-05T03:26:18.467Z,4.30
2022-10-05T03:29:09.375Z,4.25
2022-10-05T03:31:46.286Z,4.22
2022-10-05T03:34:30.096Z,4.21
2022-10-05T03:37:06.516Z,4.22
2022-10-05T03:39:43.890Z,4.24
2022-10-05T03:42:24.057Z,4.28
2022-10-05T03:45:14.415Z,4.30
2022-10-05T03:48:05.621Z,4.33
2022-10-05T03:50:51.881Z,4.35
2022-10-05T03:53:23.411Z,4.40
2022-10-05T03:56:10.736Z,4.41
2022-10-05T03:58:50.226Z,4.41
2022-10-05T04:01:25.924Z,4.41
2022-10-05T04:04:09.149Z,4.40
2022-10-05T04:06:46.863Z,4.38
2022-10-05T04:09:30.718Z,4.37
2022-10-05T04:12:19.484Z,4.34
2022-10-05T04:14:53.124Z,4.34
2022-10-05T04:17:44.493Z,4.33
2022-10-05T04:20:36.672Z,4.34
2022-10-05T04:23:10.563Z,4.36
2022-10-05T04:25:54.021Z,4.39
2022-10-05T04:28:41.378Z,4.42
2022-10-05T04:31:15.539Z,4.45
2022-10-05T04:33:53.853Z,4.47
2022-10-05T04:36:30.798Z,4.50
2022-10-05T04:39:01.537Z,4.52
2022-10-05T04:42:25.304Z,4.52
2022-10-05T04:45:06.193Z,4.52
2022-10-05T04:47:55.038Z,4.52
2022-10-05T04:50:41.555Z,4.51
2022-10-05T04:53:34.157Z,4.53
2022-10-05T04:56:21.258Z,4.55
2022-10-05T04:59:10.309Z,4.61
2022-10-05T05:01:44.185Z,4.73
2022-10-05T05:04:21.979Z,4.91
2022-10-05T05:07:03.970Z,5.33
2022-10-05T05:09:40.954Z,5.82
2022-10-05T05:12:27.074Z,5.98
2022-10-05T05:15:16.560Z,6.37
2022-10-05T05:17:50.043Z,6.95
2022-10-05T05:20:38.815Z,7.34
2022-10-05T05:23:25.143Z,7.80
2022-10-05T05:26:09.023Z,8.16
2022-10-05T05:29:12.424Z,8.39
2022-10-05T05:32:03.874Z,8.60
2022-10-05T05:34:44.397Z,8.74
2022-10-05T05:37:26.666Z,8.74
2022-10-05T05:40:16.331Z,8.79
2022-10-05T05:43:18.212Z,8.79
2022-10-05T05:45:56.373Z,8.82
2022-10-05T05:48:38.731Z,8.73
2022-10-05T05:51:25.864Z,8.77
2022-10-05T05:54:16.309Z,9.14
2022-10-05T05:57:16.980Z,9.59
2022-10-05T06:00:06.524Z,9.95
2022-10-05T06:02:57.570Z,10.05
2022-10-05T06:05:45.262Z,10.22
2022-10-05T06:08:35.598Z,10.38
2022-10-05T06:11:23.078Z,10.10
2022-10-05T06:13:52.056Z,9.50
2022-10-05T06:16:32.206Z,9.64
2022-10-05T06:19:12.066Z,9.78
2022-10-05T06:21:46.743Z,9.89
2022-10-05T06:24:30.106Z,10.05
2022-10-05T06:27:09.845Z,10.52
2022-10-05T06:29:58.934Z,11.01
2022-10-05T06:32:58.128Z,11.43
2022-10-05T06:35:56.100Z,11.81
2022-10-05T06:39:01.698Z,11.96
2022-10-05T06:41:41.388Z,12.12
2022-10-05T06:44:16.120Z,12.40
2022-10-05T06:46:59.956Z,12.66
2022-10-05T06:49:55.746Z,12.86
2022-10-05T06:53:02.285Z,13.22
2022-10-05T06:55:39.104Z,13.53
2022-10-05T06:58:36.491Z,13.87
2022-10-05T07:01:10.753Z,14.20
2022-10-05T07:04:01.413Z,14.49
2022-10-05T07:06:54.054Z,14.62
2022-10-05T07:09:28.196Z,14.25
2022-10-05T07:12:31.013Z,13.71
2022-10-05T07:15:18.011Z,13.41
2022-10-05T07:18:17.128Z,13.56
2022-10-05T07:21:19.054Z,13.39
2022-10-05T07:24:02.975Z,13.49
2022-10-05T07:26:55.058Z,13.91
2022-10-05T07:29:33.304Z,14.32
2022-10-05T07:32:23.569Z,14.75
2022-10-05T07:35:34.626Z,15.09
2022-10-05T07:38:32.840Z,15.18
2022-10-05T07:41:02.143Z,15.19
2022-10-05T07:44:01.568Z,15.03
2022-10-05T07:46:54.006Z,14.72
2022-10-05T07:49:49.814Z,14.36
2022-10-05T07:52:34.325Z,14.16
2022-10-05T07:55:18.164Z,14.05
2022-10-05T07:58:11.382Z,13.88
2022-10-05T08:01:43.392Z,13.60
2022-10-05T08:04:17.932Z,13.36
2022-10-05T08:07:02.605Z,13.25
2022-10-05T08:09:37.350Z,13.24
2022-10-05T08:12:17.525Z,13.21
2022-10-05T08:15:03.389Z,13.12
2022-10-05T08:17:49.386Z,13.03
2022-10-05T08:20:20.294Z,12.96
2022-10-05T08:22:58.408Z,12.86
2022-10-05T08:25:41.448Z,12.82
2022-10-05T08:28:21.047Z,12.80
2022-10-05T08:31:01.854Z,12.76
2022-10-05T08:33:46.027Z,12.75
2022-10-05T08:36:20.083Z,12.69
2022-10-05T08:38:51.778Z,12.79
2022-10-05T08:41:38.208Z,12.93
2022-10-05T08:44:33.934Z,13.09
2022-10-05T08:47:14.243Z,13.22
2022-10-05T08:50:06.133Z,13.38
2022-10-05T08:53:09.556Z,13.48
2022-10-05T08:55:40.569Z,13.50
2022-10-05T08:58:17.533Z,13.44
2022-10-05T09:00:57.739Z,13.43
2022-10-05T09:03:46.804Z,13.44
2022-10-05T09:06:33.708Z,13.46
2022-10-05T09:09:30.970Z,13.50
2022-10-05T09:12:20.397Z,13.55
2022-10-05T09:15:13.619Z,13.59
2022-10-05T09:18:00.563Z,13.57
2022-10-05T09:21:03.827Z,13.49
2022-10-05T09:23:49.920Z,13.45
2022-10-05T09:26:42.722Z,13.51
2022-10-05T09:29:42.221Z,13.66
2022-10-05T09:32:35.031Z,13.80
2022-10-05T09:35:28.978Z,13.83
2022-10-05T09:38:32.300Z,13.79
2022-10-05T09:41:36.620Z,13.78
2022-10-05T09:44:19.173Z,13.76
2022-10-05T09:47:06.712Z,13.70
2022-10-05T09:49:41.620Z,13.73
2022-10-05T09:52:17.965Z,13.80
2022-10-05T09:55:31.263Z,13.92
2022-10-05T09:58:29.520Z,14.02
2022-10-05T10:01:35.002Z,14.05
2022-10-05T10:04:34.433Z,13.98
2022-10-05T10:07:35.184Z,13.94
2022-10-05T10:10:18.347Z,13.97
2022-10-05T10:13:04.598Z,14.07
2022-10-05T10:15:45.710Z,14.24
2022-10-05T10:18:48.957Z,14.35
2022-10-05T10:21:35.825Z,14.36
2022-10-05T10:24:18.847Z,14.47
2022-10-05T10:27:08.840Z,14.52
2022-10-05T10:29:43.233Z,14.43
2022-10-05T10:32:36.616Z,14.45
2022-10-05T10:35:32.207Z,14.51
2022-10-05T10:38:37.923Z,14.58
2022-10-05T10:41:05.919Z,14.71
2022-10-05T10:43:57.531Z,14.83
2022-10-05T10:46:45.145Z,14.90
2022-10-05T10:49:31.501Z,15.01
2022-10-05T10:52:11.912Z,15.15
2022-10-05T10:54:42.847Z,15.34
2022-10-05T10:57:29.080Z,15.50
2022-10-05T11:00:22.399Z,15.53
2022-10-05T11:03:03.942Z,15.56
2022-10-05T11:05:48.845Z,15.57
2022-10-05T11:08:36.322Z,15.57
2022-10-05T11:11:33.595Z,15.59
2022-10-05T11:14:26.218Z,15.69
2022-10-05T11:17:12.331Z,15.77
2022-10-05T11:20:04.558Z,15.77
2022-10-05T11:22:51.703Z,15.73
2022-10-05T11:25:33.684Z,15.80
2022-10-05T11:28:15.676Z,15.88
2022-10-05T11:31:13.295Z,15.83
2022-10-05T11:33:44.116Z,15.83
2022-10-05T11:36:33.748Z,15.87
2022-10-05T11:39:43.528Z,15.86
2022-10-05T11:42:36.487Z,15.80
2022-10-05T11:45:19.389Z,15.85
2022-10-05T11:48:07.783Z,15.83
2022-10-05T11:50:54.397Z,15.71
2022-10-05T11:53:33.447Z,15.56
2022-10-05T11:56:01.447Z,15.60
2022-10-05T11:58:58.154Z,15.61
2022-10-05T12:01:39.721Z,15.58
2022-10-05T12:04:47.077Z,15.54
2022-10-05T12:07:35.538Z,15.42
2022-10-05T12:10:29.042Z,15.43
2022-10-05T12:13:14.904Z,15.39
2022-10-05T12:16:21.248Z,15.31
2022-10-05T12:19:11.981Z,15.39
2022-10-05T12:21:55.027Z,15.46
2022-10-05T12:24:49.167Z,15.48
2022-10-05T12:27:22.681Z,15.50
2022-10-05T12:30:04.168Z,15.55
2022-10-05T12:32:48.220Z,15.60
2022-10-05T12:35:49.289Z,15.70
2022-10-05T12:38:34.894Z,15.73
2022-10-05T12:41:25.931Z,15.63
2022-10-05T12:44:12.065Z,15.66
2022-10-05T12:46:46.263Z,15.69
2022-10-05T12:50:02.120Z,15.77
2022-10-05T12:52:32.819Z,15.87
2022-10-05T12:55:15.189Z,15.96
2022-10-05T12:58:21.237Z,16.04
2022-10-05T13:01:09.229Z,16.09
2022-10-05T13:03:44.599Z,16.05
2022-10-05T13:06:40.181Z,16.03
2022-10-05T13:09:32.988Z,16.02
2022-10-05T13:12:20.440Z,15.95
2022-10-05T13:14:48.303Z,15.85
2022-10-05T13:17:30.968Z,15.82
2022-10-05T13:20:09.186Z,15.82
2022-10-05T13:22:42.540Z,15.75
2022-10-05T13:25:13.598Z,15.74
2022-10-05T13:27:47.077Z,15.75
2022-10-05T13:30:21.793Z,15.76
2022-10-05T13:33:07.670Z,15.69
2022-10-05T13:36:00.412Z,15.62
2022-10-05T13:38:35.220Z,15.64
2022-10-05T13:41:20.304Z,15.62
2022-10-05T13:44:01.273Z,15.58
2022-10-05T13:46:48.399Z,15.59
2022-10-05T13:49:37.533Z,15.58
2022-10-05T13:52:09.326Z,15.59
2022-10-05T13:54:56.091Z,15.59
2022-10-05T13:57:47.553Z,15.64
2022-10-05T14:00:18.787Z,15.74
2022-10-05T14:02:51.927Z,15.74
2022-10-05T14:05:29.183Z,15.69
2022-10-05T14:08:15.457Z,15.68
2022-10-05T14:10:47.183Z,15.67
2022-10-05T14:13:29.134Z,15.64
2022-10-05T14:16:06.273Z,15.63
2022-10-05T14:18:38.172Z,15.56
2022-10-05T14:21:09.258Z,15.52
2022-10-05T14:23:38.544Z,15.47
2022-10-05T14:26:23.477Z,15.43
2022-10-05T14:29:02.330Z,15.42
2022-10-05T14:31:37.042Z,15.41
2022-10-05T14:34:23.734Z,15.40
2022-10-05T14:36:57.822Z,15.37
2022-10-05T14:39:27.833Z,15.28
2022-10-05T14:41:56.043Z,15.20
2022-10-05T14:44:29.841Z,15.13
2022-10-05T14:47:24.401Z,15.06
2022-10-05T14:50:13.744Z,14.99
2022-10-05T14:52:51.665Z,14.93
2022-10-05T14:55:42.897Z,14.87
2022-10-05T14:58:31.881Z,14.79
2022-10-05T15:01:13.865Z,14.72
2022-10-05T15:03:42.059Z,14.64
2022-10-05T15:06:29.474Z,14.62
2022-10-05T15:09:23.641Z,14.61
2022-10-05T15:11:55.198Z,14.57
2022-10-05T15:14:38.841Z,14.53
2022-10-05T15:17:32.646Z,14.49
2022-10-05T15:20:25.476Z,14.43
2022-10-05T15:23:15.246Z,14.38
2022-10-05T15:26:08.398Z,14.31
2022-10-05T15:28:55.094Z,14.28
2022-10-05T15:31:32.159Z,14.22
2022-10-05T15:34:30.652Z,14.15
2022-10-05T15:37:26.213Z,14.06
2022-10-05T15:40:02.771Z,13.97
2022-10-05T15:42:37.366Z,13.88
2022-10-05T15:45:06.328Z,13.79
2022-10-05T15:47:46.504Z,13.69
2022-10-05T15:50:23.930Z,13.58
2022-10-05T15:53:06.647Z,13.47
2022-10-05T15:55:53.337Z,13.33
2022-10-05T15:58:24.716Z,13.18
2022-10-05T16:01:05.422Z,13.05
2022-10-05T16:03:37.521Z,12.91
2022-10-05T16:06:46.885Z,12.75
2022-10-05T16:09:24.562Z,12.58
2022-10-05T16:12:00.251Z,12.44
2022-10-05T16:14:35.575Z,12.28
2022-10-05T16:17:28.491Z,12.16
2022-10-05T16:20:17.914Z,12.03
2022-10-05T16:22:59.828Z,11.92
2022-10-05T16:25:59.304Z,11.83
2022-10-05T16:28:33.456Z,11.76
2022-10-05T16:31:09.029Z,11.69
2022-10-05T16:33:55.583Z,11.65
2022-10-05T16:36:26.529Z,11.60
2022-10-05T16:39:12.155Z,11.55
2022-10-05T16:41:51.912Z,11.50
2022-10-05T16:44:32.072Z,11.42
2022-10-05T16:47:09.736Z,11.36
2022-10-05T16:49:58.890Z,11.31
2022-10-05T16:52:28.285Z,11.22
2022-10-05T16:54:59.217Z,11.17
2022-10-05T16:57:36.855Z,11.10
2022-10-05T17:00:20.353Z,11.03
2022-10-05T17:02:55.972Z,10.93
2022-10-05T17:05:38.782Z,10.83
2022-10-05T17:08:33.467Z,10.72
2022-10-05T17:11:05.939Z,10.62
2022-10-05T17:13:37.732Z,10.55
2022-10-05T17:16:14.728Z,10.51
2022-10-05T17:19:04.022Z,10.49
2022-10-05T17:22:01.099Z,10.47
2022-10-05T17:24:28.878Z,10.43
2022-10-05T17:27:02.938Z,10.40
2022-10-05T17:29:54.973Z,10.39
2022-10-05T17:32:22.791Z,10.38
2022-10-05T17:35:18.164Z,10.36
2022-10-05T17:38:14.488Z,10.34
2022-10-05T17:41:20.596Z,10.32
2022-10-05T17:44:07.095Z,10.31
2022-10-05T17:46:48.534Z,10.26
2022-10-05T17:49:20.996Z,10.20
2022-10-05T17:52:07.511Z,10.16
2022-10-05T17:55:03.075Z,10.12
2022-10-05T17:57:33.953Z,10.07
2022-10-05T18:00:25.652Z,9.98
2022-10-05T18:02:56.599Z,9.91
2022-10-05T18:05:29.358Z,9.84
2022-10-05T18:08:16.605Z,9.76
2022-10-05T18:11:05.920Z,9.66
2022-10-05T18:13:50.206Z,9.55
2022-10-05T18:16:56.184Z,9.45
2022-10-05T18:19:25.281Z,9.38
2022-10-05T18:22:03.410Z,9.33
2022-10-05T18:25:09.437Z,9.28
2022-10-05T18:27:43.032Z,9.26
2022-10-05T18:30:25.835Z,9.24
2022-10-05T18:33:15.565Z,9.23
2022-10-05T18:36:13.688Z,9.23
2022-10-05T18:38:53.388Z,9.23
2022-10-05T18:41:47.198Z,9.25
2022-10-05T18:44:31.914Z,9.24
2022-10-05T18:47:17.549Z,9.23
2022-10-05T18:49:53.456Z,9.24
2022-10-05T18:52:39.880Z,9.23
2022-10-05T18:55:38.899Z,9.21
2022-10-05T18:58:22.292Z,9.17
2022-10-05T19:01:05.653Z,9.12
2022-10-05T19:04:03.456Z,9.04
2022-10-05T19:06:36.022Z,8.96
2022-10-05T19:09:42.652Z,8.89
2022-10-05T19:12:22.730Z,8.81
2022-10-05T19:15:18.791Z,8.76
2022-10-05T19:18:19.626Z,8.73
2022-10-05T19:20:53.236Z,8.69
2022-10-05T19:23:32.965Z,8.68
2022-10-05T19:26:15.886Z,8.67
2022-10-05T19:29:10.418Z,8.67
2022-10-05T19:31:50.271Z,8.66
2022-10-05T19:34:48.912Z,8.67
2022-10-05T19:37:24.664Z,8.67
2022-10-05T19:40:03.517Z,8.68
2022-10-05T19:43:01.713Z,8.68
2022-10-05T19:45:35.186Z,8.65
2022-10-05T19:48:15.181Z,8.61
2022-10-05T19:50:58.551Z,8.57
2022-10-05T19:53:28.679Z,8.51
2022-10-05T19:56:10.224Z,8.44
2022-10-05T19:58:39.995Z,8.36
2022-10-05T20:01:07.926Z,8.30
2022-10-05T20:03:38.085Z,8.23
2022-10-05T20:06:08.163Z,8.17
2022-10-05T20:08:47.567Z,8.13
2022-10-05T20:11:18.534Z,8.10
2022-10-05T20:14:10.300Z,8.07
2022-10-05T20:16:56.577Z,8.05
2022-10-05T20:19:57.536Z,8.06
2022-10-05T20:22:38.233Z,8.07
2022-10-05T20:25:28.904Z,8.10
2022-10-05T20:27:57.440Z,8.12
2022-10-05T20:30:31.491Z,8.14
2022-10-05T20:33:00.759Z,8.14
2022-10-05T20:35:30.899Z,8.14
2022-10-05T20:37:59.996Z,8.11
2022-10-05T20:40:29.458Z,8.08
2022-10-05T20:42:58.392Z,8.02
2022-10-05T20:45:26.327Z,7.96
2022-10-05T20:47:54.138Z,7.91
2022-10-05T20:50:22.397Z,7.85
2022-10-05T20:52:50.220Z,7.78
2022-10-05T20:55:17.980Z,7.71
2022-10-05T20:57:46.278Z,7.65
2022-10-05T21:00:14.502Z,7.60
2022-10-05T21:02:42.315Z,7.57
2022-10-05T21:05:10.278Z,7.55
2022-10-05T21:07:38.191Z,7.54
2022-10-05T21:10:06.759Z,7.55
2022-10-05T21:12:34.708Z,7.55
2022-10-05T21:15:04.767Z,7.56
2022-10-05T21:17:35.243Z,7.56
2022-10-05T21:20:03.153Z,7.58
2022-10-05T21:22:31.066Z,7.61
2022-10-05T21:24:58.834Z,7.63
2022-10-05T21:27:28.858Z,7.65
2022-10-05T21:29:56.788Z,7.65
2022-10-05T21:32:24.543Z,7.65
2022-10-05T21:34:52.677Z,7.62
2022-10-05T21:37:20.520Z,7.59
2022-10-05T21:39:48.255Z,7.56
2022-10-05T21:42:16.031Z,7.53
2022-10-05T21:44:43.829Z,7.50
2022-10-05T21:47:11.809Z,7.47
2022-10-05T21:49:39.759Z,7.44
2022-10-05T21:52:07.489Z,7.42
2022-10-05T21:54:35.923Z,7.42
2022-10-05T21:57:04.104Z,7.44
2022-10-05T21:59:33.844Z,7.45
2022-10-05T22:02:02.529Z,7.45
2022-10-05T22:04:30.401Z,7.47
2022-10-05T22:06:58.396Z,7.51
2022-10-05T22:09:26.247Z,7.54
2022-10-05T22:11:54.949Z,7.53
2022-10-05T22:14:22.769Z,7.55
2022-10-05T22:16:50.581Z,7.56
2022-10-05T22:19:20.033Z,7.58
2022-10-05T22:21:47.819Z,7.58
2022-10-05T22:24:15.593Z,7.58
2022-10-05T22:26:46.639Z,7.58
2022-10-05T22:29:16.349Z,7.57
2022-10-05T22:31:48.853Z,7.55
2022-10-05T22:34:18.306Z,7.55
2022-10-05T22:36:47.620Z,7.57
2022-10-05T22:39:16.534Z,7.59
2022-10-05T22:41:45.131Z,7.61
2022-10-05T22:44:13.064Z,7.63
2022-10-05T22:46:41.001Z,7.65
2022-10-05T22:49:09.257Z,7.69
2022-10-05T22:51:37.145Z,7.73
2022-10-05T22:54:05.471Z,7.77
2022-10-05T22:56:33.465Z,7.80
2022-10-05T22:59:01.259Z,7.83
2022-10-05T23:01:29.120Z,7.85
2022-10-05T23:03:57.443Z,7.84
2022-10-05T23:06:26.722Z,7.82
2022-10-05T23:08:55.038Z,7.77
2022-10-05T23:11:26.089Z,7.71
2022-10-05T23:13:58.737Z,7.65
2022-10-05T23:16:28.542Z,7.60
2022-10-05T23:18:56.612Z,7.54
2022-10-05T23:21:27.424Z,7.46
2022-10-05T23:23:55.327Z,7.40
2022-10-05T23:26:24.966Z,7.36
2022-10-05T23:28:53.140Z,7.31
2022-10-05T23:31:24.675Z,7.28
2022-10-05T23:33:53.633Z,7.26
2022-10-05T23:36:24.720Z,7.21
2022-10-05T23:38:52.630Z,7.21
2022-10-05T23:41:20.881Z,7.24
2022-10-05T23:43:49.367Z,7.26
2022-10-05T23:46:18.030Z,7.26
2022-10-05T23:48:45.924Z,7.23
2022-10-05T23:51:14.605Z,7.23
2022-10-05T23:53:42.607Z,7.25
2022-10-05T23:56:10.983Z,7.28
2022-10-05T23:58:39.465Z,7.29
